Time;durP1;ratioP1;P1;durP2;ratioP2;P2;SDS_P1;SDS_P2;PMS_P1;PMS_P2;Temp;Humidity;BMP_temperature;BMP_pressure;BME280_temperature;BME280_humidity;BME280_pressure;Samples;Min_cycle;Max_cycle;Signal;HPM_P1;HPM_P2
2022/08/28 00:02:21;;;;;;;24.93;22.60;;;20.70;99.90;;;;;;10504056;28;20618;-81
2022/08/28 00:07:25;;;;;;;28.57;25.87;;;20.80;99.90;;;;;;10463073;28;20204;-81
2022/08/28 00:12:27;;;;;;;26.60;24.20;;;20.80;99.90;;;;;;10461449;28;20346;-81
2022/08/28 00:17:29;;;;;;;27.87;25.13;;;20.80;99.90;;;;;;10505406;28;20228;-81
2022/08/28 00:22:33;;;;;;;27.13;24.73;;;20.80;99.90;;;;;;10469210;28;20213;-81
2022/08/28 00:27:52;;;;;;;29.20;26.30;;;20.80;99.90;;;;;;10464940;28;20583;-81
2022/08/28 00:32:56;;;;;;;26.80;24.40;;;20.90;99.90;;;;;;10481267;28;20714;-81
2022/08/28 00:38:00;;;;;;;28.50;25.70;;;20.90;99.90;;;;;;10457413;28;20631;-81
2022/08/28 00:43:04;;;;;;;28.30;25.70;;;21.00;99.90;;;;;;10457067;28;20213;-81
2022/08/28 00:48:07;;;;;;;27.67;25.27;;;21.00;99.90;;;;;;10496942;28;20185;-81
2022/08/28 00:53:11;;;;;;;28.30;25.57;;;21.00;99.90;;;;;;10455439;28;20247;-81
2022/08/28 00:58:13;;;;;;;27.53;25.13;;;21.00;99.90;;;;;;10459081;28;20221;-81
2022/08/28 01:03:15;;;;;;;28.47;25.87;;;21.00;99.90;;;;;;10475758;28;20228;-81
2022/08/28 01:08:19;;;;;;;29.87;27.30;;;21.00;99.90;;;;;;10459496;28;20232;-81
2022/08/28 01:13:23;;;;;;;28.27;25.77;;;21.00;99.90;;;;;;10495231;28;20690;-81
2022/08/28 01:18:27;;;;;;;26.73;24.23;;;21.00;99.90;;;;;;10457144;28;20228;-81
2022/08/28 01:23:49;;;;;;;29.97;26.97;;;21.00;99.90;;;;;;10497876;28;20216;-81
2022/08/28 01:28:51;;;;;;;29.77;26.60;;;21.00;99.90;;;;;;10428794;28;20276;-81
2022/08/28 01:33:54;;;;;;;28.40;26.00;;;20.90;99.90;;;;;;10496170;28;20225;-81
2022/08/28 01:39:03;;;;;;;28.90;26.20;;;20.80;99.90;;;;;;10455918;28;20559;-82
2022/08/28 01:44:05;;;;;;;28.43;25.77;;;20.80;99.90;;;;;;10452488;28;20267;-81
2022/08/28 01:49:10;;;;;;;22.47;20.50;;;20.80;99.90;;;;;;10440005;28;20201;-81
2022/08/28 01:54:14;;;;;;;27.13;24.57;;;20.70;99.90;;;;;;10456214;28;20217;-81
2022/08/28 01:59:17;;;;;;;27.93;25.43;;;20.70;99.90;;;;;;10445512;28;20301;-81
2022/08/28 02:04:19;;;;;;;29.53;26.83;;;20.70;99.90;;;;;;10480724;28;20576;-81
2022/08/28 02:09:23;;;;;;;28.67;25.87;;;20.80;99.90;;;;;;10491098;28;20185;-81
2022/08/28 02:14:25;;;;;;;28.43;25.67;;;20.80;99.90;;;;;;10450298;28;20266;-80
2022/08/28 02:19:28;;;;;;;26.10;23.80;;;20.80;99.90;;;;;;10459162;28;20578;-81
2022/08/28 02:24:32;;;;;;;27.67;24.73;;;20.80;99.90;;;;;;10433453;28;20645;-81
2022/08/28 02:29:34;;;;;;;26.47;23.97;;;20.90;99.90;;;;;;10450208;28;20277;-80
2022/08/28 02:34:36;;;;;;;26.00;23.80;;;20.90;99.90;;;;;;10450293;28;20210;-81
2022/08/28 02:39:41;;;;;;;25.70;23.40;;;20.90;99.90;;;;;;10456428;28;20823;-81
2022/08/28 02:44:43;;;;;;;26.20;23.80;;;20.90;99.90;;;;;;10456359;28;20236;-81
2022/08/28 02:49:45;;;;;;;26.30;23.90;;;20.90;99.90;;;;;;10462117;28;20197;-81
2022/08/28 02:54:49;;;;;;;26.03;23.90;;;20.90;99.90;;;;;;10465287;28;20212;-81
2022/08/28 02:59:51;;;;;;;27.33;24.80;;;21.00;99.90;;;;;;10458957;28;20715;-81
2022/08/28 03:04:54;;;;;;;26.40;23.70;;;21.00;99.90;;;;;;10457570;28;20233;-81
2022/08/28 03:09:57;;;;;;;28.33;25.60;;;21.00;99.90;;;;;;10496798;28;20268;-81
2022/08/28 03:15:00;;;;;;;28.47;25.67;;;21.00;99.90;;;;;;10473225;28;20228;-81
2022/08/28 03:20:03;;;;;;;26.83;24.30;;;21.10;99.90;;;;;;10480831;28;20217;-81
2022/08/28 03:25:07;;;;;;;27.73;24.97;;;21.10;99.90;;;;;;10449211;28;20228;-81
2022/08/28 03:30:11;;;;;;;26.77;24.47;;;21.10;99.90;;;;;;10499770;28;20196;-81
2022/08/28 03:35:13;;;;;;;29.27;26.40;;;21.20;99.90;;;;;;10470389;28;20213;-81
2022/08/28 03:40:19;;;;;;;28.47;25.77;;;21.20;99.90;;;;;;10472861;28;20252;-81
2022/08/28 03:45:21;;;;;;;29.43;26.67;;;21.20;99.90;;;;;;10482377;28;20208;-81
2022/08/28 03:50:23;;;;;;;29.27;26.27;;;21.20;99.90;;;;;;10454296;28;20231;-81
2022/08/28 03:55:27;;;;;;;26.33;23.97;;;21.30;99.90;;;;;;10472464;28;20225;-81
2022/08/28 04:00:29;;;;;;;27.13;24.43;;;21.20;99.90;;;;;;10480439;28;20231;-81
2022/08/28 04:05:33;;;;;;;27.30;24.53;;;21.20;99.90;;;;;;10468005;28;20408;-81
2022/08/28 04:10:38;;;;;;;26.43;23.73;;;21.20;99.90;;;;;;10450028;28;20201;-81
2022/08/28 04:15:40;;;;;;;27.80;25.40;;;21.20;99.90;;;;;;10467567;28;20262;-81
2022/08/28 04:20:42;;;;;;;26.93;24.40;;;21.20;99.90;;;;;;10461384;28;20291;-81
2022/08/28 04:25:46;;;;;;;26.80;24.30;;;21.20;99.90;;;;;;10464008;28;20266;-81
2022/08/28 04:30:50;;;;;;;26.30;24.00;;;21.20;99.90;;;;;;10464276;28;20638;-81
2022/08/28 04:35:53;;;;;;;25.83;23.50;;;21.20;99.90;;;;;;10458118;28;20307;-81
2022/08/28 04:40:57;;;;;;;26.80;24.33;;;21.20;99.90;;;;;;10462267;28;20229;-81
2022/08/28 04:46:03;;;;;;;25.47;22.57;;;21.20;99.90;;;;;;10470635;28;20251;-81
2022/08/28 04:51:08;;;;;;;24.50;22.10;;;21.20;99.90;;;;;;10490973;28;20204;-81
2022/08/28 04:56:13;;;;;;;24.33;22.00;;;21.20;99.90;;;;;;10501085;28;20220;-81
2022/08/28 05:01:18;;;;;;;23.63;21.50;;;21.20;99.90;;;;;;10486824;28;20213;-81
2022/08/28 05:06:21;;;;;;;24.13;21.93;;;21.20;99.90;;;;;;10483790;28;20229;-81
2022/08/28 05:11:27;;;;;;;25.70;23.40;;;21.20;99.90;;;;;;10463951;28;20236;-81
2022/08/28 05:16:29;;;;;;;25.20;22.90;;;21.20;99.90;;;;;;10479976;28;20216;-81
2022/08/28 05:21:31;;;;;;;24.93;22.60;;;21.30;99.90;;;;;;10460532;28;20221;-81
2022/08/28 05:26:36;;;;;;;23.53;21.43;;;21.20;99.90;;;;;;10483701;28;20220;-81
2022/08/28 05:31:40;;;;;;;26.93;24.23;;;21.20;99.90;;;;;;10469278;28;20280;-81
2022/08/28 05:36:42;;;;;;;26.30;23.63;;;21.20;99.90;;;;;;10480495;28;20239;-81
2022/08/28 05:41:46;;;;;;;25.20;22.40;;;21.30;99.90;;;;;;10475274;28;20600;-81
2022/08/28 05:46:48;;;;;;;24.83;22.30;;;21.30;99.90;;;;;;10493749;28;20212;-81
2022/08/28 05:51:51;;;;;;;23.40;21.30;;;21.30;99.90;;;;;;10472758;28;20197;-81
2022/08/28 05:56:54;;;;;;;23.37;21.20;;;21.30;99.90;;;;;;10463929;28;20367;-81
2022/08/28 06:01:56;;;;;;;24.47;22.27;;;21.30;99.90;;;;;;10482483;28;20271;-81
2022/08/28 06:06:58;;;;;;;23.13;20.93;;;21.40;99.90;;;;;;10508583;28;20224;-81
2022/08/28 06:12:04;;;;;;;24.30;21.90;;;21.40;99.90;;;;;;10470519;28;20272;-81
2022/08/28 06:17:06;;;;;;;24.50;22.30;;;21.50;99.90;;;;;;10483010;28;20698;-81
2022/08/28 06:22:11;;;;;;;23.93;21.57;;;21.50;99.90;;;;;;10481941;28;20659;-81
2022/08/28 06:27:14;;;;;;;22.50;20.40;;;21.50;99.90;;;;;;10507509;28;20220;-81
2022/08/28 06:32:16;;;;;;;24.10;21.77;;;21.60;99.90;;;;;;10487729;28;20200;-81
2022/08/28 06:37:18;;;;;;;21.80;20.00;;;21.60;99.90;;;;;;10476746;28;20197;-81
2022/08/28 06:42:22;;;;;;;20.80;18.90;;;21.60;99.90;;;;;;10486757;28;20257;-81
2022/08/28 06:47:24;;;;;;;20.27;18.47;;;21.60;99.90;;;;;;10495265;28;20204;-81
2022/08/28 06:52:26;;;;;;;20.97;19.17;;;21.60;99.90;;;;;;10491338;28;20684;-81
2022/08/28 06:57:30;;;;;;;18.30;16.80;;;21.70;99.90;;;;;;10504704;28;20204;-81
2022/08/28 07:02:32;;;;;;;19.63;17.67;;;21.70;99.90;;;;;;10482576;28;20216;-81
2022/08/28 07:07:35;;;;;;;19.73;18.07;;;21.90;99.90;;;;;;10462983;28;20291;-81
2022/08/28 07:12:39;;;;;;;17.83;16.33;;;21.90;99.90;;;;;;10453607;28;20209;-81
2022/08/28 07:17:41;;;;;;;17.90;16.27;;;22.00;99.90;;;;;;10461616;28;20185;-81
2022/08/28 07:22:43;;;;;;;17.80;16.40;;;22.10;99.90;;;;;;10477288;28;20221;-81
2022/08/28 07:27:47;;;;;;;16.87;15.47;;;22.30;99.90;;;;;;10474443;28;20198;-81
2022/08/28 07:32:49;;;;;;;16.43;14.93;;;22.30;99.90;;;;;;10463454;28;20217;-81
2022/08/28 07:37:51;;;;;;;17.00;15.20;;;22.40;99.90;;;;;;10465125;28;20512;-81
2022/08/28 07:48:15;;;;;;;16.23;14.63;;;22.50;99.90;;;;;;10486831;28;20196;-81
2022/08/28 07:53:17;;;;;;;18.00;16.50;;;22.50;99.90;;;;;;10464203;28;20206;-81
2022/08/28 07:58:24;;;;;;;16.90;15.37;;;22.60;99.90;;;;;;10441574;28;20202;-81
2022/08/28 08:03:26;;;;;;;16.77;15.30;;;22.60;99.90;;;;;;10471216;28;20753;-81
2022/08/28 08:08:28;;;;;;;17.20;15.80;;;22.60;99.90;;;;;;10487429;22;20249;-80
2022/08/28 08:13:33;;;;;;;16.17;14.57;;;22.60;99.90;;;;;;10408296;28;20202;-82
2022/08/28 08:18:36;;;;;;;16.70;15.30;;;22.70;99.90;;;;;;10422502;28;20256;-81
2022/08/28 08:23:39;;;;;;;18.30;16.70;;;22.70;99.90;;;;;;10400830;28;20267;-79
2022/08/28 08:28:43;;;;;;;17.57;16.13;;;22.80;99.90;;;;;;10406353;28;20265;-81
2022/08/28 08:33:48;;;;;;;16.30;15.00;;;22.80;99.90;;;;;;10384396;28;20191;-80
2022/08/28 08:38:51;;;;;;;18.80;17.07;;;22.90;99.90;;;;;;10407915;28;20224;-81
2022/08/28 08:43:59;;;;;;;16.87;15.47;;;23.00;99.90;;;;;;10397906;28;20205;-82
2022/08/28 08:49:04;;;;;;;17.53;16.03;;;23.10;99.90;;;;;;10403013;28;20728;-81
2022/08/28 08:54:10;;;;;;;15.90;14.63;;;23.20;99.90;;;;;;10418602;28;20434;-80
2022/08/28 08:59:17;;;;;;;17.17;15.67;;;23.30;99.90;;;;;;10386885;28;20206;-80
2022/08/28 09:04:35;;;;;;;16.20;14.77;;;23.50;99.90;;;;;;10402362;28;20194;-81
2022/08/28 09:09:41;;;;;;;16.67;14.97;;;23.80;99.90;;;;;;10396170;28;20706;-80
2022/08/28 09:14:56;;;;;;;16.53;14.90;;;24.00;99.90;;;;;;10406873;28;20262;-79
2022/08/28 09:19:58;;;;;;;16.53;12.57;;;24.20;99.90;;;;;;10397115;28;20233;-82
2022/08/28 09:25:00;;;;;;;14.50;13.37;;;24.40;99.90;;;;;;10396719;28;20630;-82
2022/08/28 09:30:07;;;;;;;13.50;12.40;;;24.60;99.90;;;;;;10402556;28;20563;-81
2022/08/28 09:35:14;;;;;;;14.03;12.83;;;24.90;99.90;;;;;;10419467;28;20548;-80
2022/08/28 09:40:21;;;;;;;13.40;12.27;;;24.90;99.90;;;;;;10375856;28;20229;-81
2022/08/28 09:45:28;;;;;;;13.90;12.70;;;24.90;99.90;;;;;;10403166;28;20194;-80
2022/08/28 09:50:34;;;;;;;13.23;11.83;;;25.10;99.90;;;;;;10394042;28;20210;-80
2022/08/28 09:55:45;;;;;;;12.03;10.93;;;25.00;99.90;;;;;;10386616;28;20678;-81
2022/08/28 10:00:54;;;;;;;13.10;12.00;;;25.10;99.90;;;;;;10401277;28;20616;-81
2022/08/28 10:06:04;;;;;;;14.10;12.70;;;25.20;99.90;;;;;;10377908;28;20246;-81
2022/08/28 10:11:16;;;;;;;13.30;12.03;;;25.20;99.90;;;;;;10381991;28;20569;-80
2022/08/28 10:16:33;;;;;;;11.53;10.53;;;25.10;99.90;;;;;;10395713;28;20222;-79
2022/08/28 10:21:41;;;;;;;12.53;11.53;;;25.00;99.90;;;;;;10398818;28;20224;-82
2022/08/28 10:26:51;;;;;;;11.03;10.13;;;25.00;99.90;;;;;;10397137;28;20253;-82
2022/08/28 10:32:19;;;;;;;11.43;10.33;;;25.20;99.90;;;;;;10394232;28;20189;-83
2022/08/28 10:37:29;;;;;;;12.33;10.33;;;25.40;99.90;;;;;;10400561;28;20276;-84
2022/08/28 10:42:35;;;;;;;12.23;11.07;;;25.30;99.90;;;;;;10417664;28;20345;-83
2022/08/28 10:47:44;;;;;;;11.83;10.80;;;25.10;99.90;;;;;;10386114;28;20226;-84
2022/08/28 10:52:53;;;;;;;11.70;10.80;;;25.10;99.90;;;;;;10415759;28;20194;-83
2022/08/28 10:57:58;;;;;;;10.93;9.97;;;25.20;99.90;;;;;;10370246;28;20412;-84
2022/08/28 11:03:10;;;;;;;11.40;10.30;;;25.20;99.90;;;;;;10401007;28;20584;-84
2022/08/28 11:08:26;;;;;;;10.30;9.30;;;25.20;99.90;;;;;;10376487;28;20226;-81
2022/08/28 11:13:46;;;;;;;10.67;9.97;;;25.10;99.90;;;;;;10421361;28;20189;-81
2022/08/28 11:19:32;;;;;;;10.80;10.00;;;24.90;99.90;;;;;;10388276;28;20218;-80
2022/08/28 11:24:46;;;;;;;12.03;11.03;;;24.80;99.90;;;;;;10366049;28;20620;-80
2022/08/28 11:30:26;;;;;;;10.30;9.40;;;25.00;99.90;;;;;;10381178;28;20292;-82
2022/08/28 11:35:51;;;;;;;10.90;10.07;;;25.00;99.90;;;;;;10401677;28;20399;-82
2022/08/28 11:40:56;;;;;;;11.67;10.67;;;24.90;99.90;;;;;;10410079;28;20292;-83
2022/08/28 11:46:24;;;;;;;11.43;10.60;;;24.80;99.90;;;;;;10412704;28;20273;-82
2022/08/28 11:51:54;;;;;;;10.43;9.40;;;24.80;99.90;;;;;;10399901;28;20200;-82
2022/08/28 11:57:10;;;;;;;10.37;9.60;;;25.00;99.90;;;;;;10418163;28;20728;-82
2022/08/28 12:02:42;;;;;;;10.50;9.70;;;25.00;99.90;;;;;;10405095;28;20270;-83
2022/08/28 12:07:48;;;;;;;11.40;10.33;;;25.00;99.90;;;;;;10394727;28;20226;-83
2022/08/28 12:12:54;;;;;;;9.83;8.77;;;25.00;99.90;;;;;;10395109;28;20257;-83
2022/08/28 12:17:58;;;;;;;8.77;8.10;;;25.00;99.90;;;;;;10374838;28;20222;-82
2022/08/28 12:23:23;;;;;;;9.80;9.00;;;25.00;99.90;;;;;;10376760;28;20254;-81
2022/08/28 12:28:30;;;;;;;10.13;9.27;;;25.20;99.90;;;;;;10377978;28;20225;-83
2022/08/28 12:33:38;;;;;;;10.67;9.87;;;25.30;99.90;;;;;;10384086;28;20270;-84
2022/08/28 12:38:49;;;;;;;9.43;8.63;;;25.30;99.90;;;;;;10367640;28;20214;-85
2022/08/28 12:43:56;;;;;;;8.73;8.13;;;25.10;99.90;;;;;;10389512;28;20276;-84
2022/08/28 12:49:00;;;;;;;8.80;8.17;;;25.10;99.90;;;;;;10366208;28;20257;-83
2022/08/28 12:54:07;;;;;;;9.90;9.13;;;25.10;99.90;;;;;;10412147;28;20662;-84
2022/08/28 12:59:33;;;;;;;9.63;8.87;;;25.10;99.90;;;;;;10373327;28;20543;-83
2022/08/28 13:04:38;;;;;;;9.57;8.77;;;25.00;99.90;;;;;;10377999;28;20230;-84
2022/08/28 13:09:47;;;;;;;9.70;8.90;;;24.80;99.90;;;;;;10402680;28;20230;-84
2022/08/28 13:14:51;;;;;;;9.47;8.77;;;24.80;99.90;;;;;;10395031;28;20220;-82
2022/08/28 13:20:05;;;;;;;11.03;10.00;;;24.90;99.90;;;;;;10428488;28;20728;-84
2022/08/28 13:25:09;;;;;;;10.13;8.23;;;24.90;99.90;;;;;;10391654;28;20210;-83
2022/08/28 13:30:23;;;;;;;9.40;8.70;;;24.80;99.90;;;;;;10382334;28;20391;-82
2022/08/28 13:35:37;;;;;;;9.00;8.27;;;24.80;99.90;;;;;;10361682;28;20289;-82
2022/08/28 13:40:46;;;;;;;9.43;8.73;;;24.80;99.90;;;;;;10379709;28;20269;-82
2022/08/28 13:45:49;;;;;;;8.60;7.93;;;25.00;99.90;;;;;;10400210;28;20896;-82
2022/08/28 13:50:56;;;;;;;10.07;9.13;;;25.00;99.90;;;;;;10372647;28;20209;-82
2022/08/28 13:56:00;;;;;;;8.93;8.20;;;24.90;99.90;;;;;;10339089;28;20714;-83
2022/08/28 14:01:04;;;;;;;7.93;7.10;;;24.80;99.90;;;;;;10420282;28;20275;-83
2022/08/28 14:06:10;;;;;;;8.80;8.10;;;24.80;98.80;;;;;;10375944;28;20237;-83
2022/08/28 14:11:15;;;;;;;8.00;7.50;;;24.80;99.40;;;;;;10410678;28;20198;-82
2022/08/28 14:16:17;;;;;;;8.57;7.80;;;24.80;99.90;;;;;;10339074;28;20261;-84
2022/08/28 14:21:20;;;;;;;8.00;7.40;;;24.70;99.30;;;;;;10413895;28;20224;-83
2022/08/28 14:26:24;;;;;;;9.17;8.57;;;24.70;98.80;;;;;;10380647;28;20337;-84
2022/08/28 14:31:26;;;;;;;9.77;8.97;;;24.70;99.70;;;;;;10378912;28;20195;-84
2022/08/28 14:36:29;;;;;;;9.00;8.10;;;24.70;99.80;;;;;;10378644;28;20206;-83
2022/08/28 14:41:34;;;;;;;10.47;7.97;;;24.90;99.10;;;;;;10371162;28;20222;-83
2022/08/28 14:46:37;;;;;;;8.50;7.80;;;25.10;99.80;;;;;;10416481;28;20344;-85
2022/08/28 14:51:41;;;;;;;7.80;7.30;;;25.10;98.70;;;;;;10395768;28;20285;-84
2022/08/28 14:56:45;;;;;;;8.77;8.10;;;25.10;98.00;;;;;;10389967;28;20225;-83
2022/08/28 15:01:49;;;;;;;9.07;7.73;;;25.00;98.40;;;;;;10414198;28;20218;-84
2022/08/28 15:06:56;;;;;;;8.10;7.50;;;25.00;98.50;;;;;;10381691;28;20250;-81
2022/08/28 15:12:00;;;;;;;8.27;7.57;;;24.90;99.90;;;;;;10419626;28;20187;-83
2022/08/28 15:17:02;;;;;;;8.70;8.00;;;24.90;99.50;;;;;;10365024;28;20342;-84
2022/08/28 15:22:04;;;;;;;9.30;8.60;;;24.80;99.90;;;;;;10386473;28;20225;-81
2022/08/28 15:27:07;;;;;;;8.80;8.20;;;24.80;99.90;;;;;;10392617;28;20234;-81
2022/08/28 15:32:09;;;;;;;8.40;7.77;;;24.80;99.40;;;;;;10380417;28;20226;-82
2022/08/28 15:37:12;;;;;;;8.30;7.60;;;24.90;99.20;;;;;;10383625;28;20211;-83
2022/08/28 15:42:15;;;;;;;7.77;7.00;;;24.90;99.90;;;;;;10384726;28;20218;-82
2022/08/28 15:47:17;;;;;;;9.03;7.73;;;24.90;99.20;;;;;;10364963;28;20222;-82
2022/08/28 15:52:19;;;;;;;7.83;7.33;;;24.90;98.20;;;;;;10357790;28;20191;-81
2022/08/28 15:57:23;;;;;;;8.03;7.43;;;25.00;99.90;;;;;;10381723;28;20218;-81
2022/08/28 16:02:25;;;;;;;7.83;7.10;;;25.00;98.20;;;;;;10381508;28;20569;-82
2022/08/28 16:07:28;;;;;;;7.87;7.27;;;25.10;98.00;;;;;;10412757;28;20229;-82
2022/08/28 16:12:31;;;;;;;7.73;7.13;;;25.20;97.60;;;;;;10366869;28;20654;-82
2022/08/28 16:17:33;;;;;;;8.50;8.00;;;25.30;98.30;;;;;;10348408;28;20607;-81
2022/08/28 16:22:36;;;;;;;8.00;7.17;;;25.40;98.30;;;;;;10383947;28;20253;-81
2022/08/28 16:27:41;;;;;;;8.10;7.50;;;25.40;97.50;;;;;;10373669;28;20245;-84
2022/08/28 16:32:45;;;;;;;7.57;6.97;;;25.40;98.30;;;;;;10402644;28;20204;-82
2022/08/28 16:37:47;;;;;;;9.07;8.43;;;25.30;95.60;;;;;;10389111;28;20251;-82
2022/08/28 16:42:51;;;;;;;32.90;20.90;;;25.10;97.70;;;;;;10360956;28;20210;-83
2022/08/28 16:47:53;;;;;;;10.03;9.13;;;25.00;98.80;;;;;;10402616;28;20210;-84
2022/08/28 16:52:55;;;;;;;9.73;8.73;;;24.90;97.60;;;;;;10365052;28;20195;-83
2022/08/28 16:57:59;;;;;;;11.27;7.17;;;24.90;97.30;;;;;;10347906;28;20644;-84
2022/08/28 17:03:01;;;;;;;8.00;7.50;;;24.90;96.30;;;;;;10374047;28;20222;-83
2022/08/28 17:08:03;;;;;;;8.37;7.67;;;24.90;97.10;;;;;;10411147;28;20230;-83
2022/08/28 17:13:07;;;;;;;10.27;9.47;;;24.80;96.20;;;;;;10347145;28;20196;-83
2022/08/28 17:18:09;;;;;;;11.33;7.83;;;24.80;96.50;;;;;;10363810;28;20230;-81
2022/08/28 17:23:12;;;;;;;8.63;8.00;;;24.70;95.20;;;;;;10379662;28;20249;-82
2022/08/28 17:28:15;;;;;;;7.53;7.10;;;24.60;97.40;;;;;;10359944;28;20230;-85
2022/08/28 17:33:17;;;;;;;8.00;7.33;;;24.50;98.40;;;;;;10366167;28;20226;-84
2022/08/28 17:38:19;;;;;;;8.00;7.30;;;24.40;98.60;;;;;;10374323;28;20218;-83
2022/08/28 17:43:23;;;;;;;8.20;7.50;;;24.30;97.20;;;;;;10390197;28;20222;-85
2022/08/28 17:48:25;;;;;;;8.67;7.97;;;24.20;97.10;;;;;;10397417;28;20219;-83
2022/08/28 17:53:27;;;;;;;7.67;7.17;;;24.20;99.70;;;;;;10354601;28;20197;-84
2022/08/28 17:58:30;;;;;;;8.50;7.80;;;24.10;99.40;;;;;;10389005;28;20227;-84
2022/08/28 18:03:32;;;;;;;8.20;7.50;;;24.00;99.90;;;;;;10387743;28;20257;-84
2022/08/28 18:08:35;;;;;;;7.83;7.10;;;23.90;98.80;;;;;;10365582;28;20840;-83
2022/08/28 18:13:38;;;;;;;7.57;7.13;;;23.90;99.00;;;;;;10342446;28;20199;-82
2022/08/28 18:18:41;;;;;;;7.20;6.70;;;23.80;99.90;;;;;;10385793;28;20225;-82
2022/08/28 18:23:43;;;;;;;8.77;7.93;;;23.70;99.30;;;;;;10363047;28;20226;-84
2022/08/28 18:28:47;;;;;;;7.67;7.17;;;23.70;99.40;;;;;;10385637;28;20567;-84
2022/08/28 18:33:49;;;;;;;7.90;7.40;;;23.60;99.90;;;;;;10377109;28;20256;-82
2022/08/28 18:38:54;;;;;;;9.17;8.27;;;23.50;99.90;;;;;;10400571;28;20678;-83
2022/08/28 18:43:59;;;;;;;7.63;7.13;;;23.30;99.90;;;;;;10390098;28;20256;-85
2022/08/28 18:49:01;;;;;;;7.50;7.00;;;23.20;99.90;;;;;;10379982;28;20289;-83
2022/08/28 18:54:03;;;;;;;9.00;8.30;;;23.00;99.90;;;;;;10406301;28;20309;-84
2022/08/28 18:59:07;;;;;;;9.07;8.07;;;23.00;99.90;;;;;;10408258;28;20214;-84
2022/08/28 19:04:09;;;;;;;8.10;7.53;;;22.80;99.90;;;;;;10386542;28;20301;-84
2022/08/28 19:09:11;;;;;;;8.70;7.90;;;22.70;99.90;;;;;;10417740;28;20351;-84
2022/08/28 19:14:15;;;;;;;8.93;8.33;;;22.70;99.90;;;;;;10382708;28;20639;-83
2022/08/28 19:19:17;;;;;;;8.60;8.10;;;22.60;99.90;;;;;;10403631;28;20225;-84
2022/08/28 19:24:21;;;;;;;8.93;8.33;;;22.50;99.90;;;;;;10401734;28;20823;-84
2022/08/28 19:29:24;;;;;;;9.00;8.27;;;22.50;99.90;;;;;;10402624;28;20259;-83
2022/08/28 19:34:28;;;;;;;8.67;7.97;;;22.50;99.90;;;;;;10375570;28;20213;-84
2022/08/28 19:39:30;;;;;;;10.03;9.23;;;22.50;99.90;;;;;;10392640;28;20256;-84
2022/08/28 19:44:38;;;;;;;9.40;8.67;;;22.40;99.90;;;;;;10412834;28;20253;-79
2022/08/28 19:49:40;;;;;;;9.27;8.57;;;22.30;99.90;;;;;;10417885;28;20206;-80
2022/08/28 19:54:42;;;;;;;10.20;9.37;;;22.30;99.90;;;;;;10417973;28;20186;-80
2022/08/28 19:59:46;;;;;;;10.37;9.63;;;22.30;99.90;;;;;;10418212;28;20210;-81
2022/08/28 20:04:48;;;;;;;9.50;8.73;;;22.20;99.90;;;;;;10400515;28;20292;-83
2022/08/28 20:09:50;;;;;;;9.80;8.90;;;22.10;99.90;;;;;;10365253;28;20324;-81
2022/08/28 20:14:54;;;;;;;10.33;9.50;;;22.10;99.90;;;;;;10376414;28;20281;-81
2022/08/28 20:19:58;;;;;;;8.90;8.10;;;22.00;99.90;;;;;;10395509;28;20218;-81
2022/08/28 20:25:00;;;;;;;8.67;7.87;;;22.00;99.90;;;;;;10402823;28;20233;-81
2022/08/28 20:30:06;;;;;;;9.70;8.90;;;21.90;99.90;;;;;;10397266;28;20217;-82
2022/08/28 20:35:10;;;;;;;9.40;8.40;;;21.90;99.90;;;;;;10393237;28;20264;-81
2022/08/28 20:40:13;;;;;;;9.53;8.60;;;21.80;99.90;;;;;;10398781;28;20204;-81
2022/08/28 20:45:17;;;;;;;9.83;8.90;;;21.70;99.90;;;;;;10384982;28;20268;-81
2022/08/28 20:50:20;;;;;;;9.40;8.80;;;21.70;99.90;;;;;;10399172;28;20221;-81
2022/08/28 20:55:22;;;;;;;9.13;8.40;;;21.70;99.90;;;;;;10409146;28;20221;-81
2022/08/28 21:00:25;;;;;;;9.47;8.77;;;21.60;99.90;;;;;;10386453;28;20736;-81
2022/08/28 21:05:29;;;;;;;10.67;9.70;;;21.60;99.90;;;;;;10362480;28;20288;-81
2022/08/28 21:10:31;;;;;;;9.60;8.80;;;21.50;99.90;;;;;;10362694;28;20518;-81
2022/08/28 21:15:35;;;;;;;9.40;8.70;;;21.40;99.90;;;;;;10401151;28;20218;-81
2022/08/28 21:20:37;;;;;;;10.40;9.60;;;21.40;99.90;;;;;;10413607;28;20233;-81
2022/08/28 21:25:40;;;;;;;10.47;9.60;;;21.40;99.90;;;;;;10384916;28;20233;-81
2022/08/28 21:30:43;;;;;;;9.20;8.60;;;21.30;99.90;;;;;;10362664;28;20183;-81
2022/08/28 21:35:46;;;;;;;9.60;8.67;;;21.30;99.90;;;;;;10376246;28;20213;-81
2022/08/28 21:40:48;;;;;;;9.57;8.87;;;21.20;99.90;;;;;;10401589;28;20296;-80
2022/08/28 21:45:58;;;;;;;10.53;9.63;;;21.20;99.90;;;;;;10417762;28;20259;-81
2022/08/28 21:51:01;;;;;;;10.73;9.73;;;21.20;99.90;;;;;;10403010;28;20186;-82
2022/08/28 21:56:04;;;;;;;8.97;8.30;;;21.10;99.90;;;;;;10390085;28;20218;-82
2022/08/28 22:01:12;;;;;;;9.53;8.73;;;21.10;99.90;;;;;;10375563;28;20243;-82
2022/08/28 22:06:17;;;;;;;10.10;9.30;;;21.10;99.90;;;;;;10403576;28;20703;-82
2022/08/28 22:11:20;;;;;;;10.63;9.90;;;21.00;99.90;;;;;;10393512;28;20204;-82
2022/08/28 22:16:25;;;;;;;10.17;9.27;;;20.90;99.90;;;;;;10388103;28;20238;-82
2022/08/28 22:26:47;;;;;;;10.00;9.27;;;20.90;99.90;;;;;;10411936;28;20239;-82
2022/08/28 22:31:51;;;;;;;9.07;8.37;;;20.80;99.90;;;;;;10419274;28;20190;-82
2022/08/28 22:36:53;;;;;;;9.33;8.63;;;20.80;99.90;;;;;;10416013;28;20245;-81
2022/08/28 22:41:55;;;;;;;9.57;8.57;;;20.70;99.90;;;;;;10402051;28;20298;-82
2022/08/28 22:46:59;;;;;;;9.10;8.40;;;20.70;99.90;;;;;;10392641;28;20221;-82
2022/08/28 22:52:01;;;;;;;8.73;8.13;;;20.60;99.90;;;;;;10403514;28;20224;-81
2022/08/28 22:57:04;;;;;;;9.47;8.67;;;20.60;99.90;;;;;;10393132;28;20732;-82
2022/08/28 23:02:08;;;;;;;9.27;8.47;;;20.60;99.90;;;;;;10385835;28;20305;-82
2022/08/28 23:07:10;;;;;;;8.20;7.70;;;20.60;99.90;;;;;;10376402;28;20253;-82
2022/08/28 23:12:12;;;;;;;8.93;8.33;;;20.60;99.90;;;;;;10392837;28;20200;-81
2022/08/28 23:17:16;;;;;;;8.60;7.83;;;20.50;99.90;;;;;;10393980;28;20222;-82
2022/08/28 23:22:18;;;;;;;9.63;8.83;;;20.50;99.90;;;;;;10380965;28;20206;-82
2022/08/28 23:27:21;;;;;;;10.23;9.40;;;20.40;99.90;;;;;;10398589;28;20249;-81
2022/08/28 23:32:24;;;;;;;9.10;8.40;;;20.40;99.90;;;;;;10395677;28;20556;-82
2022/08/28 23:37:26;;;;;;;10.23;9.20;;;20.30;99.90;;;;;;10380433;28;20210;-82
2022/08/28 23:42:29;;;;;;;9.07;8.27;;;20.30;99.90;;;;;;10404557;28;20262;-81
2022/08/28 23:47:32;;;;;;;10.30;9.60;;;20.30;99.90;;;;;;10389368;28;20214;-82
2022/08/28 23:52:34;;;;;;;11.00;10.13;;;20.30;99.90;;;;;;10391963;28;20201;-82
2022/08/28 23:57:36;;;;;;;10.20;9.40;;;20.20;99.90;;;;;;10401417;28;20221;-82
